BNA weather

Nashville International Airport
Nashville, Tennessee, United States

Public forecast

Using degrees Fahrenheit for public forecast. Weather courtesy of forecast.io.

METAR (pilot weather report)

Retrieved 2019/03/26 04:53 UTC (51 minutes ago):

KBNA 260453Z 01013KT 10SM OVC017 09/04 A3018 RMK AO2 SLP220 T00940039

TAF (pilot weather forecast)

Forecast is more than 12 hours old.

Retrieved 2019/03/25 00:51 UTC (1 day ago):

TAF KBNA 252340Z 2600/2624 34010G20KT P6SM OVC025 FM260600 36011G17KT P6SM OVC050 FM261100 36009G14KT P6SM SKC FM261900 02011G17KT P6SM BKN250